Independence of the Seas — C6WW4 — position and weather

sailwx.info

Track history (hours):
 
Tides and Currents Weather Stations Pressure Air Temp Water Temp Dewpoint Dewpoint Depression Visibility Wind Speed Wind Dir Waves Ship Positions

Independence of the Seas

Last reported at 2017-Apr-25 06:00 UTC. Time now 2017-Apr-26 17:45 UTC.
Position N 38°08' W 024°29'.

Length 339 m; draft 8.8 m.

Type: Passenger vessel. MMSI: 309374000.

Date/timePositionNaut miles runAvg speedWind from/ knotsBaromVisibWave heightAir tempDewpointWater temp
2017-Apr-25 06:00N 38°08' W 024°29'1020.6
2017-Apr-25 05:30N 38°02' W 024°39'1020.9
2017-Apr-25 05:00N 37°55' W 024°50'1020.0
2017-Apr-25 04:31N 37°49' W 024°59'1020.4
2017-Apr-25 04:00N 37°42' W 025°09'1019.6
2017-Apr-25 03:30N 37°41' W 025°22'1019.2
2017-Apr-25 03:01N 37°41' W 025°34'510.6
2017-Apr-25 02:30N 37°44' W 025°39'0 0.9
2017-Apr-25 02:01N 37°44' W 025°40'1 2.4
2017-Apr-25 01:31N 37°43' W 025°40'1019.6
2017-Apr-25 01:01N 37°42' W 025°53'1019.9
2017-Apr-25 00:31N 37°41' W 026°05'1121.0
2017-Apr-25 00:01N 37°40' W 026°18'1121.1
2017-Apr-24 23:30N 37°39' W 026°32'1121.0
2017-Apr-24 23:00N 37°37' W 026°45'1121.6
2017-Apr-24 22:30N 37°36' W 026°58'1921.1
2017-Apr-24 21:36N 37°34' W 027°23'1421.0
2017-Apr-24 20:55N 37°32' W 027°40'921.4
2017-Apr-24 20:30N 37°31' W 027°51'1121.2
2017-Apr-24 20:00N 37°30' W 028°05'1021.0
2017-Apr-24 19:30N 37°29' W 028°18'1021.0
2017-Apr-24 19:00N 37°28' W 028°31'1121.3
2017-Apr-24 18:30N 37°26' W 028°44'1121.2
2017-Apr-24 18:00N 37°25' W 028°58'1221.2
2017-Apr-24 17:28N 37°24' W 029°12'1021.4
2017-Apr-24 17:00N 37°23' W 029°24'1521.4
2017-Apr-24 16:18N 37°21' W 029°43'1621.0
2017-Apr-24 15:33N 37°19' W 030°03'120.9
2017-Apr-24 15:30N 37°19' W 030°04'  
2017-Apr-19 23:05N 17°60' W 063°02'1 0.1
2017-Apr-19 10:38N 18°00' W 063°03'1 4.9
2017-Apr-19 10:26N 17°60' W 063°02'4 7.5
2017-Apr-19 09:57N 17°56' W 063°01'4 9.1
2017-Apr-19 09:30N 17°52' W 063°01'3 6.0
2017-Apr-19 08:59N 17°49' W 063°02'3 5.1
2017-Apr-19 08:30N 17°47' W 063°03'2 4.7
2017-Apr-19 08:00N 17°45' W 063°04'2 4.5
2017-Apr-19 07:30N 17°43' W 063°02'3 6.2
2017-Apr-19 06:58N 17°40' W 063°05'6 6.5
2017-Apr-19 06:06N 17°35' W 063°04'2 7.5
2017-Apr-19 05:51N 17°33' W 063°05'10 0.5
2017-Apr-18 07:03N 17°42' W 063°11'011.3
2017-Apr-18 07:00N 17°42' W 063°11'611.1
2017-Apr-18 06:29N 17°45' W 063°17'511.2
2017-Apr-18 06:00N 17°47' W 063°22'9011.3
2017-Apr-17 22:03N 18°13' W 064°53'010.7
2017-Apr-17 22:00N 18°13' W 064°53'72 3.7
2017-Apr-17 02:15N 18°28' W 066°08'1 0.1
2017-Apr-16 16:41N 18°28' W 066°07'3 6.7
2017-Apr-16 16:14N 18°31' W 066°08'  
Track history (hours):
 
Tides and Currents Weather Stations Pressure Air Temp Water Temp Dewpoint Dewpoint Depression Visibility Wind Speed Wind Dir Waves Ship Positions

Independence of the Seas

Last reported at 2017-Apr-25 06:00 UTC. Time now 2017-Apr-26 17:45 UTC.
Position N 38°08' W 024°29'.

Length 339 m; draft 8.8 m.

Type: Passenger vessel. MMSI: 309374000.

Date/timePositionNaut miles runAvg speedWind from/ knotsBaromVisibWave heightAir tempDewpointWater temp
2017-Apr-25 06:00N 38°08' W 024°29'1020.6
2017-Apr-25 05:30N 38°02' W 024°39'1020.9
2017-Apr-25 05:00N 37°55' W 024°50'1020.0
2017-Apr-25 04:31N 37°49' W 024°59'1020.4
2017-Apr-25 04:00N 37°42' W 025°09'1019.6
2017-Apr-25 03:30N 37°41' W 025°22'1019.2
2017-Apr-25 03:01N 37°41' W 025°34'510.6
2017-Apr-25 02:30N 37°44' W 025°39'0 0.9
2017-Apr-25 02:01N 37°44' W 025°40'1 2.4
2017-Apr-25 01:31N 37°43' W 025°40'1019.6
2017-Apr-25 01:01N 37°42' W 025°53'1019.9
2017-Apr-25 00:31N 37°41' W 026°05'1121.0
2017-Apr-25 00:01N 37°40' W 026°18'1121.1
2017-Apr-24 23:30N 37°39' W 026°32'1121.0
2017-Apr-24 23:00N 37°37' W 026°45'1121.6
2017-Apr-24 22:30N 37°36' W 026°58'1921.1
2017-Apr-24 21:36N 37°34' W 027°23'1421.0
2017-Apr-24 20:55N 37°32' W 027°40'921.4
2017-Apr-24 20:30N 37°31' W 027°51'1121.2
2017-Apr-24 20:00N 37°30' W 028°05'1021.0
2017-Apr-24 19:30N 37°29' W 028°18'1021.0
2017-Apr-24 19:00N 37°28' W 028°31'1121.3
2017-Apr-24 18:30N 37°26' W 028°44'1121.2
2017-Apr-24 18:00N 37°25' W 028°58'1221.2
2017-Apr-24 17:28N 37°24' W 029°12'1021.4
2017-Apr-24 17:00N 37°23' W 029°24'1521.4
2017-Apr-24 16:18N 37°21' W 029°43'1621.0
2017-Apr-24 15:33N 37°19' W 030°03'120.9
2017-Apr-24 15:30N 37°19' W 030°04'  
2017-Apr-19 23:05N 17°60' W 063°02'1 0.1
2017-Apr-19 10:38N 18°00' W 063°03'1 4.9
2017-Apr-19 10:26N 17°60' W 063°02'4 7.5
2017-Apr-19 09:57N 17°56' W 063°01'4 9.1
2017-Apr-19 09:30N 17°52' W 063°01'3 6.0
2017-Apr-19 08:59N 17°49' W 063°02'3 5.1
2017-Apr-19 08:30N 17°47' W 063°03'2 4.7
2017-Apr-19 08:00N 17°45' W 063°04'2 4.5
2017-Apr-19 07:30N 17°43' W 063°02'3 6.2
2017-Apr-19 06:58N 17°40' W 063°05'6 6.5
2017-Apr-19 06:06N 17°35' W 063°04'2 7.5
2017-Apr-19 05:51N 17°33' W 063°05'10 0.5
2017-Apr-18 07:03N 17°42' W 063°11'011.3
2017-Apr-18 07:00N 17°42' W 063°11'611.1
2017-Apr-18 06:29N 17°45' W 063°17'511.2
2017-Apr-18 06:00N 17°47' W 063°22'9011.3
2017-Apr-17 22:03N 18°13' W 064°53'010.7
2017-Apr-17 22:00N 18°13' W 064°53'72 3.7
2017-Apr-17 02:15N 18°28' W 066°08'1 0.1
2017-Apr-16 16:41N 18°28' W 066°07'3 6.7
2017-Apr-16 16:14N 18°31' W 066°08'  

Dump ship's entire track history